createdAt,value
2018-02-25T00:00:04.619Z,-4.50
2018-02-25T00:02:32.947Z,-4.50
2018-02-25T00:05:00.407Z,-4.50
2018-02-25T00:07:27.857Z,-4.50
2018-02-25T00:09:56.083Z,-4.60
2018-02-25T00:12:23.543Z,-4.60
2018-02-25T00:14:51.011Z,-4.60
2018-02-25T00:17:19.239Z,-4.60
2018-02-25T00:19:46.689Z,-4.60
2018-02-25T00:22:25.846Z,-4.60
2018-02-25T00:24:53.346Z,-4.70
2018-02-25T00:27:20.751Z,-4.70
2018-02-25T00:29:48.208Z,-4.70
2018-02-25T00:32:15.687Z,-4.70
2018-02-25T00:34:43.131Z,-4.70
2018-02-25T00:37:10.611Z,-4.70
2018-02-25T00:39:38.112Z,-4.70
2018-02-25T00:42:05.553Z,-4.80
2018-02-25T00:44:33.780Z,-4.80
2018-02-25T00:47:01.235Z,-4.80
2018-02-25T00:49:29.460Z,-4.90
2018-02-25T00:51:56.949Z,-4.90
2018-02-25T00:54:24.431Z,-4.90
2018-02-25T00:56:51.887Z,-4.90
2018-02-25T00:59:19.349Z,-4.90
2018-02-25T01:01:46.814Z,-4.90
2018-02-25T01:04:14.268Z,-4.90
2018-02-25T01:06:41.727Z,-4.90
2018-02-25T01:09:09.175Z,-5.00
2018-02-25T01:11:36.646Z,-5.00
2018-02-25T01:14:04.129Z,-5.00
2018-02-25T01:16:31.581Z,-5.00
2018-02-25T01:18:59.039Z,-5.10
2018-02-25T01:21:26.525Z,-5.00
2018-02-25T01:23:53.987Z,-5.10
2018-02-25T01:26:21.420Z,-5.10
2018-02-25T01:28:49.655Z,-5.10
2018-02-25T01:31:17.892Z,-5.10
2018-02-25T01:33:45.347Z,-5.20
2018-02-25T01:36:12.815Z,-5.20
2018-02-25T01:38:40.312Z,-5.10
2018-02-25T01:41:07.752Z,-5.20
2018-02-25T01:43:35.211Z,-5.20
2018-02-25T01:46:03.452Z,-5.20
2018-02-25T01:48:30.910Z,-5.30
2018-02-25T01:51:04.276Z,-5.20
2018-02-25T01:53:32.498Z,-5.30
2018-02-25T01:55:59.968Z,-5.30
2018-02-25T01:58:27.428Z,-5.30
2018-02-25T02:00:54.887Z,-5.30
2018-02-25T02:03:22.348Z,-5.30
2018-02-25T02:05:49.795Z,-5.40
2018-02-25T02:08:17.259Z,-5.40
2018-02-25T02:10:44.720Z,-5.40
2018-02-25T02:13:12.963Z,-5.50
2018-02-25T02:15:40.402Z,-5.50
2018-02-25T02:18:07.876Z,-5.50
2018-02-25T02:20:35.332Z,-5.50
2018-02-25T02:23:02.798Z,-5.50
2018-02-25T02:25:30.246Z,-5.50
2018-02-25T02:27:57.752Z,-5.60
2018-02-25T02:30:25.224Z,-5.60
2018-02-25T02:32:53.441Z,-5.60
2018-02-25T02:35:20.921Z,-5.60
2018-02-25T02:37:48.378Z,-5.60
2018-02-25T02:40:15.834Z,-5.60
2018-02-25T02:42:44.186Z,-5.60
2018-02-25T02:45:11.647Z,-5.70
2018-02-25T02:47:39.162Z,-5.60
2018-02-25T02:50:06.568Z,-5.60
2018-02-25T02:52:34.029Z,-5.60
2018-02-25T02:55:01.514Z,-5.60
2018-02-25T02:57:29.060Z,-5.60
2018-02-25T02:59:56.542Z,-5.60
2018-02-25T03:02:24.000Z,-5.50
2018-02-25T03:04:51.443Z,-5.60
2018-02-25T03:07:18.923Z,-5.60
2018-02-25T03:09:47.143Z,-5.60
2018-02-25T03:12:14.636Z,-5.60
2018-02-25T03:14:42.125Z,-5.60
2018-02-25T03:17:09.569Z,-5.60
2018-02-25T03:19:37.015Z,-5.60
2018-02-25T03:22:04.491Z,-5.70
2018-02-25T03:24:31.935Z,-5.70
2018-02-25T03:26:59.403Z,-5.70
2018-02-25T03:29:26.952Z,-5.80
2018-02-25T03:31:54.390Z,-5.80
2018-02-25T03:34:21.863Z,-5.80
2018-02-25T03:36:49.327Z,-5.80
2018-02-25T03:39:16.792Z,-5.90
2018-02-25T03:41:44.296Z,-5.90
2018-02-25T03:44:11.779Z,-5.90
2018-02-25T03:46:39.262Z,-5.90
2018-02-25T03:49:06.735Z,-5.90
2018-02-25T03:51:34.224Z,-6.00
2018-02-25T03:54:01.683Z,-6.00
2018-02-25T03:56:29.190Z,-6.00
2018-02-25T03:58:56.647Z,-6.00
2018-02-25T04:01:24.163Z,-6.00
2018-02-25T04:03:51.643Z,-6.00
2018-02-25T04:06:19.098Z,-6.00
2018-02-25T04:08:46.578Z,-6.00
2018-02-25T04:11:14.091Z,-6.00
2018-02-25T04:13:41.578Z,-6.00
2018-02-25T04:16:09.075Z,-6.00
2018-02-25T04:18:37.306Z,-6.00
2018-02-25T04:21:05.531Z,-6.10
2018-02-25T04:23:33.020Z,-6.10
2018-02-25T04:26:00.576Z,-6.10
2018-02-25T04:28:28.048Z,-6.00
2018-02-25T04:30:56.310Z,-6.00
2018-02-25T04:33:23.771Z,-6.10
2018-02-25T04:35:51.249Z,-6.00
2018-02-25T04:38:19.511Z,-6.00
2018-02-25T04:40:46.978Z,-6.00
2018-02-25T04:43:14.462Z,-5.90
2018-02-25T04:45:41.918Z,-5.90
2018-02-25T04:48:09.399Z,-5.90
2018-02-25T04:50:36.868Z,-5.90
2018-02-25T04:53:04.324Z,-5.90
2018-02-25T04:55:31.814Z,-5.90
2018-02-25T04:58:00.043Z,-5.90
2018-02-25T05:00:27.551Z,-5.90
2018-02-25T05:02:55.047Z,-5.90
2018-02-25T05:05:23.287Z,-6.00
2018-02-25T05:07:50.782Z,-6.00
2018-02-25T05:10:19.007Z,-5.90
2018-02-25T05:12:46.502Z,-6.00
2018-02-25T05:15:14.734Z,-5.90
2018-02-25T05:17:42.222Z,-5.90
2018-02-25T05:20:09.706Z,-5.90
2018-02-25T05:22:37.930Z,-5.90
2018-02-25T05:25:05.412Z,-5.90
2018-02-25T05:27:32.890Z,-5.90
2018-02-25T05:30:01.166Z,-5.90
2018-02-25T05:32:28.622Z,-5.90
2018-02-25T05:34:56.139Z,-5.90
2018-02-25T05:37:23.672Z,-5.90
2018-02-25T05:39:51.137Z,-5.90
2018-02-25T05:42:18.756Z,-5.80
2018-02-25T05:44:46.234Z,-5.80
2018-02-25T05:47:13.732Z,-5.80
2018-02-25T05:49:41.210Z,-5.70
2018-02-25T05:52:08.710Z,-5.70
2018-02-25T05:54:36.179Z,-5.70
2018-02-25T05:57:03.642Z,-5.60
2018-02-25T05:59:31.142Z,-5.60
2018-02-25T06:01:58.602Z,-5.50
2018-02-25T06:04:26.083Z,-5.50
2018-02-25T06:06:53.567Z,-5.50
2018-02-25T06:09:21.027Z,-5.40
2018-02-25T06:11:48.523Z,-5.40
2018-02-25T06:14:15.991Z,-5.30
2018-02-25T06:16:44.220Z,-5.20
2018-02-25T06:19:11.715Z,-5.20
2018-02-25T06:21:39.214Z,-5.20
2018-02-25T06:24:06.687Z,-5.10
2018-02-25T06:26:34.142Z,-5.10
2018-02-25T06:29:01.646Z,-5.10
2018-02-25T06:31:29.134Z,-5.00
2018-02-25T06:33:56.618Z,-4.90
2018-02-25T06:36:24.118Z,-4.90
2018-02-25T06:38:51.627Z,-4.90
2018-02-25T06:41:19.152Z,-4.80
2018-02-25T06:43:47.394Z,-4.70
2018-02-25T06:46:14.862Z,-4.80
2018-02-25T06:48:42.350Z,-4.70
2018-02-25T06:51:09.814Z,-4.70
2018-02-25T06:53:37.290Z,-4.60
2018-02-25T06:56:04.759Z,-4.60
2018-02-25T06:58:32.250Z,-4.50
2018-02-25T07:00:59.711Z,-4.50
2018-02-25T07:03:27.200Z,-4.40
2018-02-25T07:05:54.795Z,-4.40
2018-02-25T07:08:22.258Z,-4.30
2018-02-25T07:10:49.751Z,-4.30
2018-02-25T07:13:17.222Z,-4.20
2018-02-25T07:15:45.473Z,-4.10
2018-02-25T07:18:12.954Z,-4.10
2018-02-25T07:20:41.183Z,-4.00
2018-02-25T07:23:08.685Z,-4.00
2018-02-25T07:25:36.926Z,-3.90
2018-02-25T07:28:04.390Z,-3.90
2018-02-25T07:30:31.894Z,-3.80
2018-02-25T07:32:59.355Z,-3.80
2018-02-25T07:35:26.916Z,-3.70
2018-02-25T07:37:54.404Z,-3.70
2018-02-25T07:40:21.894Z,-3.70
2018-02-25T07:42:49.358Z,-3.60
2018-02-25T07:45:17.584Z,-3.50
2018-02-25T07:47:45.240Z,-3.50
2018-02-25T07:50:12.730Z,-3.40
2018-02-25T07:52:40.188Z,-3.40
2018-02-25T07:55:07.665Z,-3.30
2018-02-25T07:57:35.163Z,-3.30
2018-02-25T08:00:02.618Z,-3.20
2018-02-25T08:02:30.076Z,-3.20
2018-02-25T08:04:57.543Z,-3.10
2018-02-25T08:07:25.003Z,-3.10
2018-02-25T08:09:52.575Z,-3.10
2018-02-25T08:12:20.036Z,-3.00
2018-02-25T08:14:47.494Z,-3.00
2018-02-25T08:17:14.975Z,-2.90
2018-02-25T08:19:42.447Z,-2.90
2018-02-25T08:22:09.915Z,-2.90
2018-02-25T08:24:37.392Z,-2.90
2018-02-25T08:27:04.871Z,-2.90
2018-02-25T08:29:32.332Z,-2.80
2018-02-25T08:31:59.819Z,-2.80
2018-02-25T08:34:27.287Z,-2.80
2018-02-25T08:36:55.542Z,-2.70
2018-02-25T08:39:23.001Z,-2.70
2018-02-25T08:41:50.456Z,-2.70
2018-02-25T08:44:17.939Z,-2.70
2018-02-25T08:46:45.406Z,-2.70
2018-02-25T08:49:12.890Z,-2.60
2018-02-25T08:51:40.366Z,-2.60
2018-02-25T08:54:07.890Z,-2.60
2018-02-25T08:56:35.345Z,-2.60
2018-02-25T08:59:02.828Z,-2.60
2018-02-25T09:01:30.288Z,-2.50
2018-02-25T09:03:57.749Z,-2.50
2018-02-25T09:06:25.234Z,-2.50
2018-02-25T09:08:52.685Z,-2.40
2018-02-25T09:11:20.183Z,-2.40
2018-02-25T09:13:47.641Z,-2.30
2018-02-25T09:16:15.131Z,-2.20
2018-02-25T09:18:42.599Z,-2.20
2018-02-25T09:21:10.059Z,-2.10
2018-02-25T09:23:37.593Z,-2.00
2018-02-25T09:26:05.075Z,-1.90
2018-02-25T09:28:32.591Z,-1.80
2018-02-25T09:31:00.079Z,-1.80
2018-02-25T09:33:27.540Z,-1.70
2018-02-25T09:35:55.084Z,-1.70
2018-02-25T09:38:22.507Z,-1.60
2018-02-25T09:40:50.761Z,-1.50
2018-02-25T09:43:18.227Z,-1.50
2018-02-25T09:45:46.456Z,-1.30
2018-02-25T09:48:13.986Z,-1.30
2018-02-25T09:50:41.470Z,-1.20
2018-02-25T09:53:08.936Z,-1.20
2018-02-25T09:55:36.428Z,-1.10
2018-02-25T09:58:03.934Z,-1.00
2018-02-25T10:00:31.425Z,-0.90
2018-02-25T10:02:58.883Z,-0.80
2018-02-25T10:05:26.383Z,-0.80
2018-02-25T10:07:53.918Z,-0.70
2018-02-25T10:10:21.355Z,-0.80
2018-02-25T10:12:48.847Z,-0.70
2018-02-25T10:15:17.093Z,-0.60
2018-02-25T10:17:44.551Z,-0.70
2018-02-25T10:20:12.090Z,-0.70
2018-02-25T10:22:39.574Z,-0.70
2018-02-25T10:25:07.073Z,-0.70
2018-02-25T10:27:34.561Z,-0.70
2018-02-25T10:30:02.039Z,-0.60
2018-02-25T10:32:29.506Z,-0.70
2018-02-25T10:34:57.746Z,-0.70
2018-02-25T10:37:25.226Z,-0.70
2018-02-25T10:39:52.682Z,-0.70
2018-02-25T10:42:20.178Z,-0.70
2018-02-25T10:44:48.398Z,-0.80
2018-02-25T10:47:15.875Z,-0.80
2018-02-25T10:49:43.383Z,-0.80
2018-02-25T10:52:10.883Z,-0.80
2018-02-25T10:54:38.355Z,-0.80
2018-02-25T10:57:05.821Z,-0.80
2018-02-25T10:59:33.323Z,-0.90
2018-02-25T11:02:00.805Z,-0.90
2018-02-25T11:04:28.275Z,-0.90
2018-02-25T11:06:55.750Z,-1.00
2018-02-25T11:09:24.128Z,-1.00
2018-02-25T11:11:51.605Z,-1.00
2018-02-25T11:14:19.119Z,-1.10
2018-02-25T11:16:46.671Z,-1.10
2018-02-25T11:19:14.139Z,-1.10
2018-02-25T11:21:41.634Z,-1.10
2018-02-25T11:24:09.862Z,-1.20
2018-02-25T11:26:37.346Z,-1.20
2018-02-25T11:29:04.883Z,-1.20
2018-02-25T11:31:32.444Z,-1.20
2018-02-25T11:34:00.627Z,-1.30
2018-02-25T11:36:28.102Z,-1.30
2018-02-25T11:38:55.609Z,-1.20
2018-02-25T11:41:23.091Z,-1.20
2018-02-25T11:43:50.555Z,-1.20
2018-02-25T11:46:18.100Z,-1.10
2018-02-25T11:48:45.583Z,-1.00
2018-02-25T11:51:13.114Z,-1.00
2018-02-25T11:53:40.608Z,-1.00
2018-02-25T11:56:08.108Z,-1.10
2018-02-25T11:58:35.598Z,-1.10
2018-02-25T12:01:03.083Z,-1.10
2018-02-25T12:03:30.589Z,-1.20
2018-02-25T12:05:58.047Z,-1.20
2018-02-25T12:08:25.531Z,-1.10
2018-02-25T12:10:53.008Z,-1.10
2018-02-25T12:13:20.517Z,-1.00
2018-02-25T12:15:48.079Z,-1.00
2018-02-25T12:18:15.613Z,-1.00
2018-02-25T12:20:43.858Z,-1.00
2018-02-25T12:23:11.592Z,-1.00
2018-02-25T12:25:39.075Z,-1.00
2018-02-25T12:28:06.589Z,-1.00
2018-02-25T12:30:34.059Z,-1.10
2018-02-25T12:33:01.523Z,-1.10
2018-02-25T12:35:29.808Z,-1.20
2018-02-25T12:37:57.296Z,-1.20
2018-02-25T12:40:25.542Z,-1.20
2018-02-25T12:42:53.020Z,-1.20
2018-02-25T12:45:20.475Z,-1.10
2018-02-25T12:47:47.943Z,-1.00
2018-02-25T12:50:15.433Z,-1.00
2018-02-25T12:52:43.327Z,-1.00
2018-02-25T12:55:10.815Z,-1.00
2018-02-25T12:57:39.056Z,-0.90
2018-02-25T13:00:06.549Z,-1.00
2018-02-25T13:02:34.784Z,-1.00
2018-02-25T13:05:02.330Z,-0.90
2018-02-25T13:07:29.840Z,-1.00
2018-02-25T13:09:58.087Z,-1.10
2018-02-25T13:12:25.562Z,-1.00
2018-02-25T13:14:53.043Z,-1.10
2018-02-25T13:17:21.279Z,-1.20
2018-02-25T13:19:48.779Z,-1.20
2018-02-25T13:22:16.257Z,-1.30
2018-02-25T13:24:43.766Z,-1.30
2018-02-25T13:27:11.335Z,-1.30
2018-02-25T13:29:38.834Z,-1.40
2018-02-25T13:32:06.307Z,-1.40
2018-02-25T13:34:33.787Z,-1.40
2018-02-25T13:37:01.262Z,-1.40
2018-02-25T13:39:28.718Z,-1.40
2018-02-25T13:41:56.774Z,-1.40
2018-02-25T13:44:24.999Z,-1.40
2018-02-25T13:46:52.490Z,-1.40
2018-02-25T13:49:19.957Z,-1.40
2018-02-25T13:51:47.444Z,-1.40
2018-02-25T13:54:15.717Z,-1.40
2018-02-25T13:56:43.966Z,-1.40
2018-02-25T13:59:11.551Z,-1.40
2018-02-25T14:01:39.466Z,-1.40
2018-02-25T14:04:06.931Z,-1.40
2018-02-25T14:06:34.422Z,-1.40
2018-02-25T14:09:01.903Z,-1.40
2018-02-25T14:11:29.410Z,-1.40
2018-02-25T14:13:56.903Z,-1.30
2018-02-25T14:16:24.648Z,-1.20
2018-02-25T14:18:52.154Z,-1.20
2018-02-25T14:21:20.377Z,-1.00
2018-02-25T14:23:47.922Z,-1.10
2018-02-25T14:26:15.383Z,-1.00
2018-02-25T14:28:43.623Z,-1.00
2018-02-25T14:31:11.111Z,-1.00
2018-02-25T14:33:38.574Z,-1.00
2018-02-25T14:36:06.088Z,-1.00
2018-02-25T14:38:33.592Z,-1.00
2018-02-25T14:41:01.090Z,-1.10
2018-02-25T14:43:29.351Z,-1.10
2018-02-25T14:45:57.453Z,-1.10
2018-02-25T14:48:24.975Z,-1.10
2018-02-25T14:50:52.454Z,-1.10
2018-02-25T14:53:19.955Z,-1.20
2018-02-25T14:55:47.438Z,-1.20
2018-02-25T14:58:14.939Z,-1.30
2018-02-25T15:00:43.175Z,-1.40
2018-02-25T15:03:10.674Z,-1.50
2018-02-25T15:05:39.333Z,-1.60
2018-02-25T15:08:24.663Z,-1.70
2018-02-25T15:11:04.722Z,-1.70
2018-02-25T15:13:42.102Z,-1.70
2018-02-25T15:16:09.600Z,-1.70
2018-02-25T15:18:37.887Z,-1.70
2018-02-25T15:21:05.374Z,-1.70
2018-02-25T15:23:33.001Z,-1.70
2018-02-25T15:26:00.487Z,-1.70
2018-02-25T15:28:28.752Z,-1.70
2018-02-25T15:30:57.014Z,-1.70
2018-02-25T15:33:24.503Z,-1.70
2018-02-25T15:35:52.019Z,-1.70
2018-02-25T15:38:19.539Z,-1.70
2018-02-25T15:40:47.803Z,-1.70
2018-02-25T15:43:15.271Z,-1.80
2018-02-25T15:45:42.817Z,-1.80
2018-02-25T15:48:11.102Z,-1.80
2018-02-25T15:50:38.604Z,-1.90
2018-02-25T15:53:06.831Z,-1.90
2018-02-25T15:55:34.369Z,-1.90
2018-02-25T15:58:01.895Z,-1.80
2018-02-25T16:00:29.387Z,-1.90
2018-02-25T16:02:57.638Z,-2.00
2018-02-25T16:05:25.139Z,-2.00
2018-02-25T16:07:52.595Z,-2.00
2018-02-25T16:10:20.107Z,-2.00
2018-02-25T16:12:47.647Z,-2.10
2018-02-25T16:15:15.875Z,-2.10
2018-02-25T16:17:43.386Z,-2.10
2018-02-25T16:20:10.864Z,-2.20
2018-02-25T16:22:38.408Z,-2.20
2018-02-25T16:25:05.881Z,-2.30
2018-02-25T16:27:33.363Z,-2.30
2018-02-25T16:30:00.838Z,-2.40
2018-02-25T16:32:28.342Z,-2.40
2018-02-25T16:34:55.810Z,-2.50
2018-02-25T16:37:23.307Z,-2.50
2018-02-25T16:39:50.932Z,-2.60
2018-02-25T16:42:18.413Z,-2.70
2018-02-25T16:44:45.888Z,-2.70
2018-02-25T16:47:13.438Z,-2.80
2018-02-25T16:49:40.899Z,-2.80
2018-02-25T16:52:08.424Z,-2.80
2018-02-25T16:54:35.964Z,-2.80
2018-02-25T16:57:03.435Z,-2.90
2018-02-25T16:59:30.894Z,-2.90
2018-02-25T17:01:58.359Z,-2.90
2018-02-25T17:04:25.844Z,-2.90
2018-02-25T17:06:53.303Z,-2.90
2018-02-25T17:09:20.812Z,-2.90
2018-02-25T17:11:48.290Z,-2.90
2018-02-25T17:14:15.767Z,-2.90
2018-02-25T17:16:43.265Z,-2.90
2018-02-25T17:19:10.788Z,-2.90
2018-02-25T17:21:38.279Z,-2.90
2018-02-25T17:24:05.756Z,-3.00
2018-02-25T17:26:33.258Z,-3.00
2018-02-25T17:29:00.716Z,-3.00
2018-02-25T17:31:28.175Z,-3.00
2018-02-25T17:33:56.427Z,-2.90
2018-02-25T17:36:23.910Z,-3.00
2018-02-25T17:38:51.543Z,-2.90
2018-02-25T17:41:19.216Z,-2.90
2018-02-25T17:43:47.585Z,-2.90
2018-02-25T17:46:15.058Z,-2.90
2018-02-25T17:48:43.295Z,-2.90
2018-02-25T17:51:10.788Z,-3.00
2018-02-25T17:53:39.147Z,-3.00
2018-02-25T17:56:06.638Z,-3.00
2018-02-25T17:58:34.124Z,-3.00
2018-02-25T18:01:01.594Z,-3.00
2018-02-25T18:03:29.082Z,-3.00
2018-02-25T18:05:57.346Z,-3.00
2018-02-25T18:08:24.843Z,-3.00
2018-02-25T18:10:52.318Z,-3.00
2018-02-25T18:13:19.822Z,-3.00
2018-02-25T18:15:47.290Z,-3.00
2018-02-25T18:18:14.785Z,-3.00
2018-02-25T18:20:42.245Z,-3.00
2018-02-25T18:23:09.802Z,-3.00
2018-02-25T18:25:37.276Z,-3.10
2018-02-25T18:28:04.827Z,-3.00
2018-02-25T18:30:32.313Z,-3.10
2018-02-25T18:32:59.887Z,-3.10
2018-02-25T18:35:27.361Z,-3.10
2018-02-25T18:37:55.603Z,-3.20
2018-02-25T18:40:23.151Z,-3.20
2018-02-25T18:42:50.631Z,-3.20
2018-02-25T18:45:18.123Z,-3.20
2018-02-25T18:47:46.391Z,-3.20
2018-02-25T18:50:13.877Z,-3.20
2018-02-25T18:52:41.397Z,-3.20
2018-02-25T18:55:08.863Z,-3.30
2018-02-25T18:57:36.374Z,-3.30
2018-02-25T19:00:03.832Z,-3.30
2018-02-25T19:02:31.319Z,-3.40
2018-02-25T19:04:58.821Z,-3.40
2018-02-25T19:07:26.306Z,-3.40
2018-02-25T19:09:53.817Z,-3.40
2018-02-25T19:12:21.309Z,-3.40
2018-02-25T19:14:48.805Z,-3.40
2018-02-25T19:17:16.291Z,-3.40
2018-02-25T19:19:44.529Z,-3.40
2018-02-25T19:22:12.036Z,-3.40
2018-02-25T19:24:39.551Z,-3.40
2018-02-25T19:27:07.011Z,-3.40
2018-02-25T19:29:34.514Z,-3.40
2018-02-25T19:32:02.015Z,-3.30
2018-02-25T19:34:29.454Z,-3.40
2018-02-25T19:37:02.524Z,-3.40
2018-02-25T19:39:35.535Z,-3.40
2018-02-25T19:42:03.071Z,-3.50
2018-02-25T19:44:30.551Z,-3.50
2018-02-25T19:46:58.031Z,-3.60
2018-02-25T19:49:25.501Z,-3.70
2018-02-25T19:51:53.762Z,-3.80
2018-02-25T19:54:21.282Z,-3.80
2018-02-25T19:56:48.806Z,-3.90
2018-02-25T19:59:16.281Z,-4.00
2018-02-25T20:01:43.775Z,-4.10
2018-02-25T20:04:11.299Z,-4.20
2018-02-25T20:06:38.764Z,-4.30
2018-02-25T20:09:06.264Z,-4.40
2018-02-25T20:11:33.730Z,-4.50
2018-02-25T20:14:01.239Z,-4.60
2018-02-25T20:16:28.727Z,-4.60
2018-02-25T20:18:56.982Z,-4.60
2018-02-25T20:21:24.477Z,-4.60
2018-02-25T20:23:52.767Z,-4.60
2018-02-25T20:26:20.990Z,-4.50
2018-02-25T20:28:48.451Z,-4.50
2018-02-25T20:31:15.947Z,-4.50
2018-02-25T20:33:43.422Z,-4.40
2018-02-25T20:36:10.911Z,-4.40
2018-02-25T20:38:38.400Z,-4.40
2018-02-25T20:41:05.903Z,-4.30
2018-02-25T20:43:33.391Z,-4.30
2018-02-25T20:46:00.842Z,-4.20
2018-02-25T20:48:28.316Z,-4.20
2018-02-25T20:50:56.564Z,-4.20
2018-02-25T20:53:24.043Z,-4.20
2018-02-25T20:55:51.503Z,-4.20
2018-02-25T20:58:20.585Z,-4.20
2018-02-25T21:00:48.046Z,-4.20
2018-02-25T21:03:15.539Z,-4.20
2018-02-25T21:05:43.011Z,-4.20
2018-02-25T21:08:11.248Z,-4.30
2018-02-25T21:10:39.515Z,-4.30
2018-02-25T21:13:07.001Z,-4.30
2018-02-25T21:15:34.458Z,-4.30
2018-02-25T21:18:01.943Z,-4.30
2018-02-25T21:20:30.179Z,-4.40
2018-02-25T21:22:57.663Z,-4.40
2018-02-25T21:27:59.799Z,-4.50
2018-02-25T21:30:27.263Z,-4.60
2018-02-25T21:32:54.742Z,-4.70
2018-02-25T21:35:22.204Z,-4.80
2018-02-25T21:37:49.699Z,-4.80
2018-02-25T21:40:17.191Z,-4.90
2018-02-25T21:42:44.652Z,-4.90
2018-02-25T21:45:12.164Z,-5.00
2018-02-25T21:47:40.395Z,-4.90
2018-02-25T21:50:08.619Z,-4.80
2018-02-25T21:52:36.119Z,-4.90
2018-02-25T21:55:03.575Z,-4.80
2018-02-25T22:00:51.298Z,-4.60
2018-02-25T22:03:24.359Z,-4.60
2018-02-25T22:05:52.583Z,-4.50
2018-02-25T22:08:20.093Z,-4.50
2018-02-25T22:10:47.554Z,-4.40
2018-02-25T22:13:15.774Z,-4.50
2018-02-25T22:15:43.297Z,-4.60
2018-02-25T22:18:10.731Z,-4.60
2018-02-25T22:20:38.235Z,-4.70
2018-02-25T22:23:05.708Z,-4.70
2018-02-25T22:25:33.182Z,-4.80
2018-02-25T22:28:00.722Z,-4.80
2018-02-25T22:30:28.215Z,-4.80
2018-02-25T22:32:55.691Z,-4.90
2018-02-25T22:35:23.927Z,-5.00
2018-02-25T22:37:51.423Z,-5.00
2018-02-25T22:40:18.894Z,-5.00
2018-02-25T22:42:46.386Z,-5.00
2018-02-25T22:45:13.874Z,-5.10
2018-02-25T22:47:41.338Z,-5.10
2018-02-25T22:50:08.827Z,-5.10
2018-02-25T22:52:36.336Z,-5.10
2018-02-25T22:55:03.791Z,-5.10
2018-02-25T22:57:31.292Z,-5.00
2018-02-25T22:59:58.778Z,-5.00
2018-02-25T23:02:26.243Z,-5.10
2018-02-25T23:04:53.731Z,-5.10
2018-02-25T23:07:21.238Z,-5.10
2018-02-25T23:09:49.451Z,-5.30
2018-02-25T23:12:16.984Z,-5.30
2018-02-25T23:14:44.423Z,-5.30
2018-02-25T23:17:11.918Z,-5.40
2018-02-25T23:19:39.374Z,-5.40
2018-02-25T23:22:06.890Z,-5.50
2018-02-25T23:24:34.386Z,-5.50
2018-02-25T23:27:01.858Z,-5.50
2018-02-25T23:29:29.392Z,-5.40
2018-02-25T23:31:56.888Z,-5.40
2018-02-25T23:34:25.155Z,-5.40
2018-02-25T23:36:52.617Z,-5.40
2018-02-25T23:39:20.089Z,-5.40
2018-02-25T23:41:47.575Z,-5.40
2018-02-25T23:44:15.031Z,-5.50
2018-02-25T23:46:42.531Z,-5.50
2018-02-25T23:49:10.034Z,-5.60
2018-02-25T23:51:38.263Z,-5.70
2018-02-25T23:54:05.718Z,-5.70
2018-02-25T23:56:33.989Z,-5.90
2018-02-25T23:59:01.449Z,-5.90
